Time;durP1;ratioP1;P1;durP2;ratioP2;P2;SDS_P1;SDS_P2;PMS_P1;PMS_P2;Temp;Humidity;BMP_temperature;BMP_pressure;BME280_temperature;BME280_humidity;BME280_pressure;Samples;Min_cycle;Max_cycle;Signal;HPM_P1;HPM_P2
2022/12/24 00:02:08;;;;;;;136.40;94.60;;;;;;;4.05;67.12;99354.69;5057182;28;20029;-80
2022/12/24 00:04:33;;;;;;;122.23;84.60;;;;;;;4.26;66.95;99388.47;5055046;28;20048;-79
2022/12/24 00:06:59;;;;;;;116.93;84.00;;;;;;;4.82;67.47;99481.75;5051941;28;20047;-78
2022/12/24 00:09:24;;;;;;;108.60;77.50;;;;;;;3.61;67.20;99295.22;5050079;28;20127;-79
2022/12/24 00:11:50;;;;;;;97.30;70.60;;;;;;;3.37;67.22;99266.97;5051391;28;20138;-79
2022/12/24 00:14:15;;;;;;;94.10;69.13;;;;;;;4.35;67.34;99420.75;5051925;28;20017;-79
2022/12/24 00:16:40;;;;;;;92.73;66.87;;;;;;;4.52;67.35;99448.81;5050369;28;20060;-79
2022/12/24 00:19:06;;;;;;;87.70;62.70;;;;;;;4.13;67.43;99398.38;5052118;28;20017;-79
2022/12/24 00:21:31;;;;;;;83.47;58.67;;;;;;;4.02;67.47;99393.31;5054305;28;20102;-80
2022/12/24 00:23:57;;;;;;;95.67;67.43;;;;;;;4.40;67.62;99453.34;5054386;28;20027;-79
2022/12/24 00:26:22;;;;;;;79.00;59.03;;;;;;;4.44;67.47;99457.31;5052898;28;20039;-79
2022/12/24 00:28:47;;;;;;;83.40;59.90;;;;;;;4.58;67.43;99486.63;5053747;28;20091;-80
2022/12/24 00:31:18;;;;;;;81.23;60.67;;;;;;;4.56;67.61;99492.00;5055173;28;20052;-79
2022/12/24 00:33:45;;;;;;;80.93;56.93;;;;;;;4.37;67.38;99451.00;5055369;28;20021;-79
2022/12/24 00:36:11;;;;;;;79.83;59.80;;;;;;;4.15;67.27;99412.13;5051574;28;20017;-80
2022/12/24 00:38:37;;;;;;;100.57;67.10;;;;;;;4.44;67.43;99467.78;5051475;28;20032;-79
2022/12/24 00:41:05;;;;;;;100.00;63.40;;;;;;;3.55;67.22;99330.53;5051357;28;20052;-79
2022/12/24 00:43:31;;;;;;;98.40;62.83;;;;;;;4.52;67.61;99481.97;5051541;28;20028;-80
2022/12/24 00:45:58;;;;;;;80.23;56.17;;;;;;;4.52;67.54;99479.34;5051510;28;20025;-80
2022/12/24 00:48:23;;;;;;;74.37;53.30;;;;;;;4.23;67.51;99442.78;5051314;28;20017;-80
2022/12/24 00:50:50;;;;;;;69.20;51.30;;;;;;;3.25;67.35;99294.97;5051419;28;20028;-79
2022/12/24 00:53:16;;;;;;;76.47;53.33;;;;;;;3.51;67.65;99365.72;5050034;28;20496;-79
2022/12/24 00:55:42;;;;;;;67.60;50.87;;;;;;;4.14;67.82;99434.81;5051214;28;20096;-79
2022/12/24 00:58:07;;;;;;;65.30;46.67;;;;;;;3.91;67.70;99391.69;5051373;28;20025;-79
2022/12/24 01:00:32;;;;;;;63.10;45.33;;;;;;;4.01;67.45;99413.41;5051190;28;20485;-79
2022/12/24 01:02:58;;;;;;;59.57;43.37;;;;;;;4.29;67.59;99457.91;5051299;28;20075;-79
2022/12/24 01:05:23;;;;;;;63.33;46.23;;;;;;;4.38;67.72;99477.97;5051255;28;20048;-79
2022/12/24 01:07:49;;;;;;;64.43;45.43;;;;;;;4.38;67.47;99470.13;5051065;28;20497;-79
2022/12/24 01:10:17;;;;;;;68.50;49.10;;;;;;;4.37;67.66;99473.72;5051072;28;20060;-79
2022/12/24 01:12:43;;;;;;;72.20;49.70;;;;;;;3.85;67.27;99392.25;5051205;28;20064;-79
2022/12/24 01:15:10;;;;;;;68.20;49.70;;;;;;;4.11;67.58;99429.06;5051175;28;20493;-79
2022/12/24 01:17:36;;;;;;;77.70;55.13;;;;;;;4.14;67.69;99436.63;5051182;28;20505;-79
2022/12/24 01:20:04;;;;;;;69.23;49.10;;;;;;;4.33;67.39;99469.72;5050943;28;20025;-80
2022/12/24 01:22:29;;;;;;;65.03;46.53;;;;;;;4.35;67.53;99463.41;5053679;28;20028;-79
2022/12/24 01:24:55;;;;;;;62.27;44.50;;;;;;;3.95;67.35;99413.94;5054938;28;20017;-79
2022/12/24 01:27:20;;;;;;;63.43;46.73;;;;;;;3.41;67.70;99337.00;5055047;28;20509;-79
2022/12/24 01:29:45;;;;;;;54.83;39.63;;;;;;;2.65;67.63;99210.78;5054956;28;20104;-79
2022/12/24 01:32:11;;;;;;;56.33;41.07;;;;;;;3.58;67.83;99363.38;5053336;28;20020;-79
2022/12/24 01:34:36;;;;;;;56.93;39.57;;;;;;;4.19;67.82;99472.78;5056197;28;20108;-79
2022/12/24 01:37:02;;;;;;;55.70;40.57;;;;;;;4.07;67.90;99448.59;5058080;28;20028;-79
2022/12/24 01:39:27;;;;;;;52.03;39.50;;;;;;;2.31;67.86;99199.91;5059383;28;20391;-79
2022/12/24 01:44:46;;;;;;;53.00;38.70;;;;;;;4.20;67.58;99441.28;5058838;28;20031;-79
2022/12/24 01:47:20;;;;;;;53.93;40.20;;;;;;;4.22;67.36;99441.97;5057990;28;20059;-79
2022/12/24 01:49:57;;;;;;;60.53;42.77;;;;;;;3.96;67.48;99394.69;5057199;28;20036;-80
2022/12/24 01:52:29;;;;;;;107.13;61.73;;;;;;;4.23;67.42;99438.38;5054392;28;20053;-79
2022/12/24 01:55:16;;;;;;;89.47;55.77;;;;;;;3.17;67.44;99269.59;5054431;28;20079;-79
2022/12/24 01:57:58;;;;;;;61.80;44.27;;;;;;;4.08;67.35;99411.88;5054397;28;20031;-79
2022/12/24 02:00:23;;;;;;;59.80;41.50;;;;;;;2.63;67.65;99189.25;5052894;28;20063;-79
2022/12/24 02:02:52;;;;;;;61.50;44.07;;;;;;;3.46;67.54;99334.81;5054315;28;20021;-79
2022/12/24 02:05:48;;;;;;;68.27;45.00;;;;;;;3.63;67.58;99362.00;5052903;28;20052;-79
2022/12/24 02:08:14;;;;;;;62.10;42.60;;;;;;;3.59;67.40;99357.19;5053988;28;20059;-80
2022/12/24 02:10:40;;;;;;;61.00;41.97;;;;;;;4.07;67.78;99430.31;5052663;28;20024;-79
2022/12/24 02:13:06;;;;;;;61.77;43.43;;;;;;;4.08;67.69;99438.00;5054277;28;20124;-79
2022/12/24 02:16:06;;;;;;;64.77;46.27;;;;;;;3.52;67.60;99351.69;5052904;28;20025;-79
2022/12/24 02:18:45;;;;;;;60.53;41.67;;;;;;;4.05;67.91;99446.13;5054053;28;20029;-79
2022/12/24 02:21:16;;;;;;;54.00;39.80;;;;;;;4.04;67.54;99446.25;5053963;28;20035;-79
2022/12/24 02:23:50;;;;;;;58.28;42.35;;;;;;;4.01;67.66;99436.91;5053979;28;20021;-80
2022/12/24 02:26:32;;;;;;;71.20;47.00;;;;;;;3.63;67.40;99376.84;5053848;28;20118;-79
2022/12/24 02:29:33;;;;;;;67.63;46.72;;;;;;;4.02;67.53;99441.16;5052521;28;20057;-79
2022/12/24 02:32:09;;;;;;;60.20;42.80;;;;;;;3.46;67.39;99363.50;5052714;28;20044;-80
2022/12/24 02:34:45;;;;;;;58.40;41.80;;;;;;;3.51;67.61;99365.72;5052919;28;20421;-79
2022/12/24 02:37:32;;;;;;;58.37;40.83;;;;;;;3.96;67.48;99433.88;5053772;28;20053;-79
2022/12/24 02:40:12;;;;;;;52.83;39.30;;;;;;;3.95;67.54;99439.25;5053722;28;20025;-79
2022/12/24 02:42:43;;;;;;;53.17;39.40;;;;;;;3.96;67.68;99451.34;5053368;28;20410;-79
2022/12/24 02:45:22;;;;;;;48.97;36.03;;;;;;;3.38;67.37;99367.75;5053134;28;20037;-79
2022/12/24 02:47:50;;;;;;;53.23;37.13;;;;;;;3.86;67.49;99438.28;5053418;28;20035;-79
2022/12/24 02:50:17;;;;;;;51.03;35.87;;;;;;;3.87;67.40;99437.31;5052256;28;20029;-80
2022/12/24 02:52:44;;;;;;;46.37;35.13;;;;;;;3.91;67.50;99446.53;5053444;28;20036;-80
2022/12/24 02:55:20;;;;;;;53.03;38.07;;;;;;;2.75;67.38;99275.97;5053435;28;20057;-80
2022/12/24 02:57:53;;;;;;;47.93;33.97;;;;;;;3.26;67.08;99342.75;5053216;28;20116;-80
2022/12/24 03:00:21;;;;;;;50.60;35.67;;;;;;;3.75;67.76;99443.66;5053410;28;20071;-80
2022/12/24 03:02:52;;;;;;;56.00;38.93;;;;;;;3.73;67.78;99443.78;5053322;28;20540;-79
2022/12/24 03:05:35;;;;;;;59.47;38.90;;;;;;;3.01;67.42;99357.16;5053277;28;20065;-80
2022/12/24 03:08:13;;;;;;;47.83;34.40;;;;;;;3.50;67.69;99431.94;5053156;28;20263;-79
2022/12/24 03:10:44;;;;;;;43.73;32.63;;;;;;;3.66;67.71;99463.53;5053499;28;20021;-79
2022/12/24 03:13:15;;;;;;;44.63;30.27;;;;;;;2.31;67.58;99244.19;5053238;28;20068;-79
2022/12/24 03:15:41;;;;;;;46.80;34.23;;;;;;;3.67;67.35;99454.75;5052869;28;20025;-79
2022/12/24 03:18:10;;;;;;;39.10;30.53;;;;;;;3.53;67.13;99447.31;5051651;28;20029;-79
2022/12/24 03:20:42;;;;;;;41.33;30.90;;;;;;;3.67;67.77;99474.81;5057020;28;20040;-79
2022/12/24 03:23:08;;;;;;;44.55;30.00;;;;;;;3.67;67.38;99464.38;5058692;28;20040;-78
2022/12/24 03:25:41;;;;;;;40.87;30.70;;;;;;;3.64;67.71;99478.50;5059952;28;20032;-79
2022/12/24 03:28:09;;;;;;;39.07;30.43;;;;;;;3.23;67.47;99414.31;5057141;28;20052;-79
2022/12/24 03:30:37;;;;;;;41.23;29.50;;;;;;;3.55;67.64;99439.34;5055361;28;20020;-79
2022/12/24 03:33:03;;;;;;;42.27;29.97;;;;;;;3.43;67.61;99418.59;5054661;28;20031;-79
2022/12/24 03:35:28;;;;;;;40.93;30.97;;;;;;;2.50;67.42;99279.91;5055427;28;20021;-80
2022/12/24 03:37:53;;;;;;;43.73;31.57;;;;;;;3.42;67.63;99432.59;5056941;28;20025;-79
2022/12/24 03:40:19;;;;;;;50.00;35.17;;;;;;;2.85;67.64;99345.41;5055913;28;20432;-80
2022/12/24 03:42:44;;;;;;;48.63;35.77;;;;;;;3.57;67.39;99460.91;5057510;28;20025;-79
2022/12/24 03:45:10;;;;;;;48.43;34.40;;;;;;;3.48;67.75;99442.50;5057393;28;20033;-79
2022/12/24 03:47:35;;;;;;;44.73;33.73;;;;;;;3.17;67.57;99400.00;5057484;28;20033;-79
2022/12/24 03:50:00;;;;;;;50.43;35.80;;;;;;;3.39;67.30;99434.66;5056075;28;20033;-79
2022/12/24 03:52:26;;;;;;;46.20;34.50;;;;;;;3.54;67.90;99461.19;5055942;28;20032;-79
2022/12/24 03:54:51;;;;;;;48.37;36.10;;;;;;;3.40;67.50;99433.69;5056224;28;20032;-80
2022/12/24 03:57:17;;;;;;;47.13;35.37;;;;;;;3.27;67.75;99420.06;5054603;28;20029;-79
2022/12/24 03:59:42;;;;;;;43.07;33.27;;;;;;;3.57;67.29;99469.56;5056162;28;20109;-79
2022/12/24 04:02:08;;;;;;;45.03;33.40;;;;;;;2.91;67.46;99366.72;5055968;28;20479;-79
2022/12/24 04:04:35;;;;;;;44.80;31.90;;;;;;;3.19;67.88;99410.31;5053343;28;20479;-79
2022/12/24 04:07:01;;;;;;;39.03;30.50;;;;;;;3.50;67.47;99461.47;5051985;28;20024;-79
2022/12/24 04:09:26;;;;;;;47.27;33.17;;;;;;;3.53;67.47;99470.81;5050754;28;20036;-79
2022/12/24 04:11:51;;;;;;;44.33;32.83;;;;;;;3.16;67.66;99406.19;5051972;28;20052;-79
2022/12/24 04:14:17;;;;;;;49.57;35.10;;;;;;;3.36;67.74;99440.97;5052319;28;20183;-80
2022/12/24 04:16:42;;;;;;;48.63;34.47;;;;;;;3.48;67.26;99459.94;5052397;28;20040;-79
2022/12/24 04:19:08;;;;;;;45.50;33.50;;;;;;;3.49;67.52;99461.59;5051036;28;20036;-79
2022/12/24 04:21:33;;;;;;;43.53;32.47;;;;;;;3.50;67.11;99450.19;5051992;28;20182;-79
2022/12/24 04:23:59;;;;;;;42.53;30.87;;;;;;;3.53;67.01;99449.09;5051625;28;20032;-79
2022/12/24 04:26:24;;;;;;;52.07;34.57;;;;;;;3.51;67.12;99447.44;5051798;28;20413;-79
2022/12/24 04:28:49;;;;;;;48.63;33.80;;;;;;;2.57;67.17;99293.22;5050394;28;20029;-79
2022/12/24 04:31:16;;;;;;;48.97;34.10;;;;;;;3.47;67.54;99445.25;5051646;28;20108;-80
2022/12/24 04:33:42;;;;;;;49.30;33.47;;;;;;;3.44;67.46;99448.13;5051678;28;20083;-80
2022/12/24 04:36:12;;;;;;;47.33;36.13;;;;;;;3.10;67.57;99398.06;5051588;28;20497;-79
2022/12/24 04:38:37;;;;;;;54.87;41.20;;;;;;;3.32;67.08;99441.38;5051398;28;20463;-79
2022/12/24 04:41:12;;;;;;;63.33;52.63;;;;;;;3.24;67.35;99436.81;5051602;28;20033;-79
2022/12/24 04:43:37;;;;;;;60.83;50.93;;;;;;;3.36;67.77;99458.41;5051477;28;20096;-79
2022/12/24 04:46:13;;;;;;;61.87;47.87;;;;;;;3.34;67.46;99455.94;5051403;28;20558;-79
2022/12/24 04:48:40;;;;;;;51.07;40.53;;;;;;;2.66;67.49;99350.59;5050354;28;20033;-80
2022/12/24 04:51:06;;;;;;;53.97;39.90;;;;;;;3.35;67.31;99469.81;5051520;28;20061;-79
2022/12/24 04:53:33;;;;;;;55.40;45.60;;;;;;;2.97;67.25;99400.06;5051203;28;20486;-79
2022/12/24 04:55:58;;;;;;;65.80;50.00;;;;;;;2.97;67.44;99400.91;5051663;28;20021;-79
2022/12/24 04:58:24;;;;;;;57.27;44.43;;;;;;;2.72;67.39;99370.91;5055378;28;20032;-79
2022/12/24 05:00:50;;;;;;;63.07;48.20;;;;;;;3.32;67.33;99493.56;5055437;28;20024;-79
2022/12/24 05:03:15;;;;;;;64.63;49.87;;;;;;;2.77;67.16;99380.94;5055606;28;20036;-79
2022/12/24 05:05:40;;;;;;;63.90;49.57;;;;;;;3.25;66.89;99461.97;5057831;28;20033;-79
2022/12/24 05:08:06;;;;;;;64.13;49.10;;;;;;;2.71;67.32;99382.28;5060043;28;20082;-79
2022/12/24 05:10:31;;;;;;;63.93;51.23;;;;;;;3.12;67.25;99432.69;5059665;28;20029;-79
2022/12/24 05:12:57;;;;;;;61.43;46.93;;;;;;;2.75;66.90;99401.09;5059295;28;20045;-79
2022/12/24 05:15:22;;;;;;;63.20;46.90;;;;;;;3.31;67.13;99460.59;5057437;28;20398;-79
2022/12/24 05:17:48;;;;;;;56.53;45.53;;;;;;;3.28;66.83;99464.31;5058839;28;20033;-79
2022/12/24 05:20:13;;;;;;;58.50;44.80;;;;;;;3.31;67.17;99461.41;5056221;28;20082;-79
2022/12/24 05:28:07;;;;;;;53.00;39.63;;;;;;;2.91;66.82;99396.22;5055077;28;20106;-79
2022/12/24 05:30:32;;;;;;;54.80;42.37;;;;;;;2.41;66.59;99318.00;5055051;28;20481;-80
2022/12/24 05:32:58;;;;;;;65.57;43.77;;;;;;;2.89;66.45;99398.13;5054946;28;20080;-79
2022/12/24 05:35:23;;;;;;;60.90;44.37;;;;;;;3.28;66.66;99474.72;5053646;28;20020;-79
2022/12/24 05:37:49;;;;;;;58.30;44.47;;;;;;;3.02;66.74;99430.03;5054961;28;20441;-79
2022/12/24 05:40:14;;;;;;;60.80;45.00;;;;;;;2.31;66.43;99314.53;5054701;28;20060;-79
2022/12/24 05:42:39;;;;;;;59.90;45.33;;;;;;;2.95;66.50;99420.25;5054755;28;20036;-79
2022/12/24 05:45:06;;;;;;;65.33;49.37;;;;;;;2.73;66.44;99383.00;5054603;28;20029;-80
2022/12/24 05:47:31;;;;;;;71.50;51.93;;;;;;;3.25;66.48;99469.78;5054900;28;20044;-80
2022/12/24 05:49:56;;;;;;;74.20;54.03;;;;;;;3.21;66.72;99471.00;5057101;28;20021;-79
2022/12/24 05:52:22;;;;;;;71.33;51.03;;;;;;;3.18;66.89;99469.50;5059690;28;20414;-79
2022/12/24 05:54:47;;;;;;;78.23;56.90;;;;;;;3.20;66.93;99469.34;5057795;28;20090;-79
2022/12/24 05:57:12;;;;;;;84.33;59.37;;;;;;;2.92;66.93;99423.94;5059273;28;20035;-79
2022/12/24 05:59:38;;;;;;;88.37;65.13;;;;;;;2.54;66.89;99382.91;5059320;28;20025;-79
2022/12/24 06:02:03;;;;;;;82.37;56.07;;;;;;;3.14;66.73;99485.53;5059252;28;20132;-80
2022/12/24 06:04:29;;;;;;;71.77;49.90;;;;;;;2.24;66.99;99370.72;5056401;28;20032;-79
2022/12/24 06:06:54;;;;;;;71.20;52.93;;;;;;;3.04;67.22;99488.13;5054557;28;20033;-80
2022/12/24 06:09:19;;;;;;;59.20;43.53;;;;;;;2.53;66.60;99407.31;5054327;28;20071;-80
2022/12/24 06:11:45;;;;;;;59.93;44.57;;;;;;;2.25;66.76;99388.00;5054132;28;20521;-79
2022/12/24 06:14:10;;;;;;;53.67;38.63;;;;;;;2.02;66.70;99347.41;5054257;28;20063;-79
2022/12/24 06:16:35;;;;;;;48.37;35.40;;;;;;;2.62;66.77;99452.63;5054264;28;20031;-79
2022/12/24 06:19:02;;;;;;;54.60;38.90;;;;;;;1.99;66.74;99366.72;5053866;28;20509;-80
2022/12/24 06:21:28;;;;;;;61.03;42.27;;;;;;;2.98;66.80;99508.69;5054057;28;20039;-80
2022/12/24 06:23:53;;;;;;;57.87;42.17;;;;;;;2.95;66.71;99511.50;5053785;28;20044;-79
2022/12/24 06:26:21;;;;;;;61.27;44.33;;;;;;;2.12;66.87;99390.78;5053708;28;20505;-79
2022/12/24 06:28:48;;;;;;;60.00;45.13;;;;;;;2.95;67.23;99514.94;5053760;28;20053;-79
2022/12/24 06:31:16;;;;;;;57.67;43.03;;;;;;;2.43;66.89;99428.13;5053643;28;20520;-79
2022/12/24 06:33:42;;;;;;;65.17;47.30;;;;;;;3.04;66.67;99516.81;5053708;28;20500;-79
2022/12/24 06:36:09;;;;;;;66.60;46.73;;;;;;;3.05;66.86;99510.63;5058373;28;20112;-79
2022/12/24 06:38:35;;;;;;;65.30;46.23;;;;;;;2.47;66.67;99410.44;5057926;28;20025;-79
2022/12/24 06:41:05;;;;;;;52.67;39.53;;;;;;;1.95;66.35;99318.44;5058087;28;20027;-79
2022/12/24 06:43:33;;;;;;;54.13;38.67;;;;;;;3.16;66.50;99518.38;5059176;28;20060;-79
2022/12/24 06:45:59;;;;;;;50.03;36.63;;;;;;;2.95;66.32;99485.44;5059101;28;20056;-79
2022/12/24 06:48:24;;;;;;;59.27;41.30;;;;;;;3.02;66.66;99497.84;5055382;28;20504;-79
2022/12/24 06:50:49;;;;;;;72.17;54.90;;;;;;;3.15;66.91;99532.38;5053374;28;20021;-79
2022/12/24 06:53:15;;;;;;;94.60;67.67;;;;;;;3.14;66.95;99522.88;5053471;28;20108;-79
2022/12/24 06:55:40;;;;;;;93.63;70.57;;;;;;;2.67;66.64;99445.25;5053568;28;20118;-79
2022/12/24 06:58:06;;;;;;;106.33;78.10;;;;;;;3.18;66.43;99528.66;5053340;28;20032;-80
2022/12/24 07:00:31;;;;;;;106.60;78.37;;;;;;;1.91;66.53;99312.69;5053298;28;20024;-79
2022/12/24 07:02:56;;;;;;;112.17;77.87;;;;;;;3.30;66.65;99529.41;5053452;28;20467;-79
2022/12/24 07:05:22;;;;;;;99.90;68.57;;;;;;;3.27;66.27;99504.41;5053184;28;20833;-79
2022/12/24 07:07:47;;;;;;;96.47;66.33;;;;;;;3.34;66.61;99513.34;5052998;28;20021;-80
2022/12/24 07:10:15;;;;;;;100.20;66.77;;;;;;;3.50;66.37;99518.88;5052963;28;20029;-80
2022/12/24 07:12:40;;;;;;;91.43;66.57;;;;;;;3.56;66.65;99516.69;5051758;28;20049;-79
2022/12/24 07:15:06;;;;;;;110.63;80.07;;;;;;;3.35;66.29;99470.63;5053548;28;20035;-79
2022/12/24 07:17:32;;;;;;;115.67;85.60;;;;;;;3.48;66.28;99483.44;5053267;28;20113;-79
2022/12/24 07:19:57;;;;;;;105.20;75.93;;;;;;;3.58;66.19;99489.50;5052509;28;20052;-79
2022/12/24 07:22:23;;;;;;;109.73;82.10;;;;;;;3.54;66.21;99474.25;5053191;28;20025;-80
2022/12/24 07:24:48;;;;;;;100.67;73.40;;;;;;;3.39;66.33;99450.31;5052744;28;20028;-80
2022/12/24 07:27:13;;;;;;;99.07;73.60;;;;;;;3.46;66.34;99448.81;5052800;28;20057;-79
2022/12/24 07:29:40;;;;;;;101.30;76.87;;;;;;;3.14;65.99;99395.06;5054078;28;20056;-79
2022/12/24 07:32:05;;;;;;;99.90;70.20;;;;;;;4.02;66.33;99508.25;5054398;28;20421;-80
2022/12/24 07:34:30;;;;;;;137.37;97.93;;;;;;;3.21;66.32;99366.66;5054547;28;20031;-79
2022/12/24 07:36:56;;;;;;;147.40;107.87;;;;;;;4.17;65.93;99511.28;5054226;28;20612;-79
2022/12/24 07:39:21;;;;;;;136.57;101.67;;;;;;;4.15;66.22;99503.59;5054481;28;20033;-80
2022/12/24 07:41:49;;;;;;;135.60;103.07;;;;;;;4.26;66.17;99506.06;5053333;28;20112;-79
2022/12/24 07:44:15;;;;;;;131.50;99.10;;;;;;;4.34;65.70;99503.56;5053114;28;20639;-79
2022/12/24 07:46:40;;;;;;;127.83;98.50;;;;;;;3.62;65.97;99367.34;5052759;28;20029;-79
2022/12/24 07:49:06;;;;;;;114.33;88.37;;;;;;;4.34;65.74;99472.22;5052540;28;20043;-80
2022/12/24 07:51:31;;;;;;;117.73;89.27;;;;;;;4.17;65.87;99444.19;5054428;28;20056;-79
2022/12/24 07:53:57;;;;;;;128.93;94.03;;;;;;;3.22;65.89;99294.44;5052979;28;20035;-80
2022/12/24 07:56:23;;;;;;;116.80;87.87;;;;;;;4.60;66.09;99503.00;5054637;28;20107;-79
2022/12/24 07:58:50;;;;;;;114.57;85.43;;;;;;;4.66;66.12;99518.13;5054222;28;20032;-80
2022/12/24 08:01:15;;;;;;;114.70;85.70;;;;;;;3.54;65.77;99315.00;5054618;28;20040;-79
2022/12/24 08:03:41;;;;;;;123.53;89.33;;;;;;;4.69;65.85;99484.69;5054824;28;20021;-79
2022/12/24 08:06:07;;;;;;;130.70;98.33;;;;;;;4.62;65.93;99467.09;5052218;28;20036;-80
2022/12/24 08:08:32;;;;;;;112.50;83.30;;;;;;;4.91;65.91;99504.44;5052188;28;20521;-80
2022/12/24 08:11:02;;;;;;;116.23;84.27;;;;;;;4.45;66.23;99425.00;5052572;28;20029;-79
2022/12/24 08:13:28;;;;;;;101.87;77.23;;;;;;;4.91;65.73;99486.13;5052460;28;20041;-79
2022/12/24 08:15:53;;;;;;;118.17;90.00;;;;;;;5.15;65.93;99518.81;5052102;28;20078;-79
2022/12/24 08:18:19;;;;;;;102.90;72.80;;;;;;;4.66;65.93;99426.59;5051957;28;20021;-79
2022/12/24 08:20:44;;;;;;;97.23;73.83;;;;;;;4.02;65.86;99318.38;5055491;28;20036;-79
2022/12/24 08:23:10;;;;;;;100.87;77.17;;;;;;;5.36;65.61;99528.09;5056644;28;20080;-79
2022/12/24 08:25:36;;;;;;;94.77;69.53;;;;;;;5.45;65.79;99526.41;5055719;28;20399;-79
2022/12/24 08:28:02;;;;;;;96.80;70.83;;;;;;;5.27;65.91;99489.72;5054878;28;20055;-79
2022/12/24 08:30:28;;;;;;;100.73;72.27;;;;;;;4.48;65.50;99366.41;5053287;28;20486;-79
2022/12/24 08:32:53;;;;;;;89.87;68.50;;;;;;;5.63;65.89;99532.50;5052557;28;20036;-79
2022/12/24 08:35:19;;;;;;;96.37;71.43;;;;;;;5.69;65.99;99512.75;5051790;28;20024;-79
2022/12/24 08:37:44;;;;;;;82.90;62.57;;;;;;;5.74;66.01;99521.81;5051424;28;20035;-79
2022/12/24 08:40:11;;;;;;;78.00;58.53;;;;;;;4.81;66.04;99349.31;5051388;28;20083;-79
2022/12/24 08:42:36;;;;;;;81.60;61.03;;;;;;;5.64;65.89;99481.78;5050054;28;20485;-79
2022/12/24 08:45:02;;;;;;;77.57;57.77;;;;;;;5.97;65.97;99521.47;5051325;28;20033;-79
2022/12/24 08:47:27;;;;;;;71.83;54.13;;;;;;;5.95;66.04;99508.50;5051478;28;20095;-79
2022/12/24 08:49:52;;;;;;;78.97;58.33;;;;;;;5.93;66.06;99476.34;5051142;28;20409;-79
2022/12/24 08:52:18;;;;;;;67.90;51.07;;;;;;;6.17;65.90;99507.22;5049788;28;20053;-79
2022/12/24 08:54:43;;;;;;;67.60;51.60;;;;;;;6.12;65.56;99495.56;5051157;28;20029;-79
2022/12/24 08:57:09;;;;;;;65.83;47.07;;;;;;;5.27;65.91;99339.69;5051159;28;20032;-80
2022/12/24 08:59:34;;;;;;;58.17;46.13;;;;;;;6.40;66.23;99512.00;5051153;28;20563;-79
2022/12/24 09:02:00;;;;;;;63.53;48.83;;;;;;;5.91;65.94;99425.06;5050953;28;20029;-79
2022/12/24 09:04:25;;;;;;;59.67;47.23;;;;;;;6.52;66.19;99505.53;5050761;28;20029;-79
2022/12/24 09:06:51;;;;;;;59.60;48.33;;;;;;;6.24;65.47;99447.16;5050789;28;20032;-79
2022/12/24 09:09:16;;;;;;;61.47;45.13;;;;;;;6.15;65.92;99412.19;5051258;28;20162;-79
2022/12/24 09:11:42;;;;;;;47.42;38.25;;;;;;;6.78;65.29;99487.22;5050855;28;20057;-79
2022/12/24 09:14:07;;;;;;;49.78;38.15;;;;;;;6.64;65.69;99450.03;5050771;28;20029;-80
2022/12/24 09:16:33;;;;;;;39.17;31.75;;;;;;;5.37;65.41;99243.56;5050715;28;20478;-80
2022/12/24 09:18:58;;;;;;;38.60;29.98;;;;;;;6.93;65.55;99465.47;5050498;28;20040;-79
2022/12/24 09:21:24;;;;;;;42.47;33.42;;;;;;;7.05;65.04;99465.19;5049365;28;20103;-79
2022/12/24 09:23:49;;;;;;;41.43;32.43;;;;;;;7.23;65.15;99479.88;5050755;28;20033;-79
2022/12/24 09:26:17;;;;;;;44.28;33.10;;;;;;;7.12;64.65;99440.78;5050617;28;20033;-80
2022/12/24 09:28:43;;;;;;;44.28;34.35;;;;;;;7.33;64.81;99472.69;5050889;28;20037;-80
2022/12/24 09:31:10;;;;;;;44.25;34.17;;;;;;;6.83;64.64;99356.34;5050768;28;20560;-79
2022/12/24 09:33:38;;;;;;;40.58;31.60;;;;;;;7.65;64.37;99474.63;5049369;28;20036;-79
2022/12/24 09:36:05;;;;;;;40.35;31.42;;;;;;;7.20;64.10;99390.09;5061901;28;20036;-79
2022/12/24 09:38:31;;;;;;;43.72;34.60;;;;;;;7.90;64.08;99487.81;5067157;28;20025;-81
2022/12/24 09:40:58;;;;;;;43.05;33.30;;;;;;;7.97;63.33;99479.09;5052798;28;20500;-80
2022/12/24 09:43:28;;;;;;;43.90;33.90;;;;;;;8.06;63.48;99482.56;5053713;28;20017;-80
2022/12/24 09:46:15;;;;;;;46.60;35.50;;;;;;;8.11;63.29;99469.75;5054873;28;20510;-80
2022/12/24 09:48:45;;;;;;;48.83;36.75;;;;;;;8.03;63.31;99458.41;5054999;28;20024;-79
2022/12/24 09:51:19;;;;;;;45.60;37.20;;;;;;;7.53;62.91;99360.31;5052817;28;20112;-79
2022/12/24 09:53:49;;;;;;;52.25;41.25;;;;;;;7.65;63.41;99382.66;5052861;28;20083;-80
2022/12/24 09:56:23;;;;;;;48.50;37.30;;;;;;;8.20;62.96;99471.44;5052627;28;20413;-79
2022/12/24 09:59:03;;;;;;;53.65;40.40;;;;;;;8.21;63.39;99467.81;5054377;28;20108;-79
2022/12/24 10:01:30;;;;;;;51.42;35.05;;;;;;;8.25;63.29;99463.88;5054499;28;20483;-79
2022/12/24 10:04:03;;;;;;;32.70;26.25;;;;;;;8.19;63.20;99456.63;5054138;28;20028;-79
2022/12/24 10:06:53;;;;;;;24.77;20.30;;;;;;;8.31;63.13;99465.00;5054663;28;20418;-80
2022/12/24 10:09:27;;;;;;;19.00;14.60;;;;;;;8.35;62.95;99460.28;5055004;28;20051;-79
2022/12/24 10:12:13;;;;;;;15.88;12.68;;;;;;;8.16;62.62;99430.63;5054334;28;20045;-79
2022/12/24 10:14:38;;;;;;;23.73;15.40;;;;;;;8.44;62.24;99462.72;5054415;28;20021;-79
2022/12/24 10:17:13;;;;;;;22.92;15.80;;;;;;;8.51;62.65;99463.69;5054184;28;20035;-80
2022/12/24 10:19:52;;;;;;;21.40;16.58;;;;;;;8.60;62.29;99462.69;5054309;28;20493;-79
2022/12/24 10:22:29;;;;;;;22.33;16.05;;;;;;;8.70;61.86;99467.78;5054005;28;20059;-79
2022/12/24 10:25:02;;;;;;;26.00;19.08;;;;;;;8.44;61.60;99398.75;5053960;28;20037;-79
2022/12/24 10:27:34;;;;;;;16.40;12.82;;;;;;;8.90;61.75;99460.31;5053888;28;20029;-79
2022/12/24 10:30:18;;;;;;;19.98;15.80;;;;;;;8.89;61.49;99438.44;5053886;28;20031;-79
2022/12/24 10:32:46;;;;;;;16.80;13.15;;;;;;;9.07;61.15;99461.94;5053991;28;20024;-79
2022/12/24 10:35:14;;;;;;;18.23;13.45;;;;;;;9.09;60.84;99452.06;5053497;28;20021;-79
2022/12/24 10:37:41;;;;;;;19.42;13.73;;;;;;;8.68;60.82;99382.91;5053759;28;20025;-79
2022/12/24 10:40:23;;;;;;;18.67;14.13;;;;;;;9.16;60.74;99465.38;5035026;28;20415;-79
2022/12/24 10:42:48;;;;;;;15.88;12.13;;;;;;;9.24;60.80;99447.72;5033773;28;20084;-79
2022/12/24 10:45:19;;;;;;;16.52;12.70;;;;;;;8.37;60.64;99284.69;5032210;28;20486;-79
2022/12/24 10:47:48;;;;;;;15.32;10.57;;;;;;;9.31;60.15;99428.59;5033185;28;20060;-79
2022/12/24 10:50:32;;;;;;;14.73;11.73;;;;;;;9.19;59.84;99409.72;5033450;28;20036;-79
2022/12/24 10:53:13;;;;;;;16.52;12.38;;;;;;;9.07;59.87;99400.56;5032115;28;20414;-79
2022/12/24 10:55:38;;;;;;;19.92;14.40;;;;;;;9.11;59.86;99401.84;5032548;28;20022;-79
2022/12/24 10:58:06;;;;;;;20.42;14.75;;;;;;;8.86;59.90;99365.06;5033181;28;20029;-80
2022/12/24 11:00:33;;;;;;;21.35;17.30;;;;;;;8.64;59.54;99336.88;5033043;28;20410;-79
2022/12/24 11:03:16;;;;;;;18.38;14.10;;;;;;;9.32;60.01;99436.31;5033044;28;20049;-79
2022/12/24 11:05:42;;;;;;;20.33;13.80;;;;;;;8.52;60.27;99304.03;5032888;28;20469;-79
2022/12/24 11:08:16;;;;;;;15.18;12.75;;;;;;;9.36;59.64;99437.59;5033061;28;20116;-79
2022/12/24 11:11:14;;;;;;;16.42;13.65;;;;;;;9.38;59.66;99426.91;5032983;28;20027;-80
2022/12/24 11:13:48;;;;;;;18.83;15.30;;;;;;;9.40;59.81;99430.19;5032535;28;20048;-80
2022/12/24 11:16:23;;;;;;;18.35;15.27;;;;;;;8.89;59.83;99353.38;5032722;28;20022;-80
2022/12/24 11:18:54;;;;;;;19.02;14.55;;;;;;;9.18;59.60;99389.63;5031487;28;20025;-80
2022/12/24 11:21:26;;;;;;;19.10;12.88;;;;;;;9.46;59.19;99419.75;5032857;28;20122;-80
2022/12/24 11:23:54;;;;;;;;;;;;;;;9.42;59.20;99420.28;5033206;28;20021;-80
2022/12/24 11:26:25;;;;;;;22.20;15.57;;;;;;;9.51;59.13;99419.25;5032617;28;20007;-80
2022/12/24 11:29:14;;;;;;;20.02;15.45;;;;;;;9.54;58.94;99417.06;5032797;28;20022;-81
2022/12/24 11:31:44;;;;;;;23.50;17.23;;;;;;;8.95;58.89;99309.75;5032488;28;20064;-79
2022/12/24 11:34:41;;;;;;;24.23;18.25;;;;;;;9.73;59.21;99428.19;5032740;28;20036;-80
2022/12/24 11:37:21;;;;;;;19.17;14.65;;;;;;;9.83;58.39;99420.88;5048762;28;20044;-80
2022/12/24 11:39:53;;;;;;;17.55;15.23;;;;;;;9.89;58.40;99414.88;5033299;28;20033;-80